createdAt,value
2023-05-09T00:00:17.132Z,33.51
2023-05-09T00:01:42.615Z,33.51
2023-05-09T00:02:48.375Z,33.50
2023-05-09T00:03:56.721Z,33.50
2023-05-09T00:05:03.092Z,33.51
2023-05-09T00:06:08.986Z,33.51
2023-05-09T00:07:15.041Z,33.51
2023-05-09T00:08:20.287Z,33.50
2023-05-09T00:09:26.459Z,33.51
2023-05-09T00:10:32.135Z,33.50
2023-05-09T00:11:37.982Z,33.51
2023-05-09T00:12:44.537Z,33.51
2023-05-09T00:13:51.105Z,33.50
2023-05-09T00:14:57.340Z,33.51
2023-05-09T00:16:04.202Z,33.50
2023-05-09T00:17:10.438Z,33.50
2023-05-09T00:18:16.708Z,33.50
2023-05-09T00:19:22.938Z,33.51
2023-05-09T00:20:29.073Z,33.50
2023-05-09T00:21:35.273Z,33.50
2023-05-09T00:22:42.024Z,33.51
2023-05-09T00:23:48.392Z,33.51
2023-05-09T00:24:54.177Z,33.51
2023-05-09T00:26:00.370Z,33.51
2023-05-09T00:27:06.476Z,33.51
2023-05-09T00:28:13.050Z,33.51
2023-05-09T00:29:19.035Z,33.51
2023-05-09T00:30:25.773Z,33.51
2023-05-09T00:31:32.306Z,33.52
2023-05-09T00:32:40.871Z,33.51
2023-05-09T00:33:46.794Z,33.51
2023-05-09T00:34:52.249Z,33.51
2023-05-09T00:35:58.281Z,33.50
2023-05-09T00:37:03.730Z,33.51
2023-05-09T00:38:09.592Z,33.51
2023-05-09T00:39:15.209Z,33.52
2023-05-09T00:40:21.671Z,33.52
2023-05-09T00:41:27.827Z,33.52
2023-05-09T00:42:33.782Z,33.51
2023-05-09T00:43:39.019Z,33.51
2023-05-09T00:44:45.704Z,33.51
2023-05-09T00:45:51.432Z,33.51
2023-05-09T00:46:57.624Z,33.52
2023-05-09T00:48:03.966Z,33.51
2023-05-09T00:49:09.750Z,33.51
2023-05-09T00:50:15.430Z,33.51
2023-05-09T00:51:21.885Z,33.52
2023-05-09T00:52:28.500Z,33.52
2023-05-09T00:53:34.178Z,33.52
2023-05-09T00:54:40.418Z,33.52
2023-05-09T00:55:46.251Z,33.52
2023-05-09T00:56:52.513Z,33.52
2023-05-09T00:57:58.696Z,33.52
2023-05-09T00:59:04.313Z,33.52
2023-05-09T01:00:17.090Z,33.52
2023-05-09T01:01:23.178Z,33.52
2023-05-09T01:02:29.396Z,33.52
2023-05-09T01:03:35.506Z,33.52
2023-05-09T01:04:41.256Z,33.52
2023-05-09T01:06:14.498Z,33.52
2023-05-09T01:07:31.694Z,33.51
2023-05-09T01:09:00.432Z,33.51
2023-05-09T01:10:17.475Z,33.50
2023-05-09T01:11:35.517Z,33.49
2023-05-09T01:13:08.444Z,33.49
2023-05-09T01:14:33.061Z,33.49
2023-05-09T01:15:47.429Z,33.49
2023-05-09T01:17:01.587Z,33.49
2023-05-09T01:18:18.914Z,33.49
2023-05-09T01:19:46.608Z,33.50
2023-05-09T01:21:05.569Z,33.50
2023-05-09T01:22:12.956Z,33.49
2023-05-09T01:23:43.075Z,33.49
2023-05-09T01:25:23.843Z,33.49
2023-05-09T01:26:55.881Z,33.49
2023-05-09T01:28:40.434Z,33.49
2023-05-09T01:29:52.535Z,33.48
2023-05-09T01:30:58.116Z,33.49
2023-05-09T01:32:08.425Z,33.49
2023-05-09T01:33:18.470Z,33.49
2023-05-09T01:34:24.402Z,33.49
2023-05-09T01:35:30.742Z,33.50
2023-05-09T01:36:37.278Z,33.50
2023-05-09T01:37:44.499Z,33.50
2023-05-09T01:38:51.715Z,33.50
2023-05-09T01:39:59.043Z,33.50
2023-05-09T01:41:06.346Z,33.50
2023-05-09T01:42:12.784Z,33.50
2023-05-09T01:43:18.135Z,33.51
2023-05-09T01:44:24.486Z,33.51
2023-05-09T01:45:30.387Z,33.51
2023-05-09T01:46:36.619Z,33.52
2023-05-09T01:47:42.241Z,33.52
2023-05-09T01:48:47.717Z,33.52
2023-05-09T01:49:52.890Z,33.52
2023-05-09T01:51:01.895Z,33.52
2023-05-09T01:52:09.701Z,33.52
2023-05-09T01:53:15.828Z,33.52
2023-05-09T01:54:21.958Z,33.52
2023-05-09T01:55:29.626Z,33.52
2023-05-09T01:56:36.770Z,33.51
2023-05-09T01:57:44.412Z,33.52
2023-05-09T01:58:51.496Z,33.53
2023-05-09T01:59:59.019Z,33.53
2023-05-09T02:01:05.079Z,33.52
2023-05-09T02:02:11.244Z,33.52
2023-05-09T02:03:17.360Z,33.52
2023-05-09T02:04:24.112Z,33.52
2023-05-09T02:05:31.084Z,33.52
2023-05-09T02:06:36.962Z,33.52
2023-05-09T02:07:43.220Z,33.52
2023-05-09T02:08:48.823Z,33.52
2023-05-09T02:09:55.459Z,33.52
2023-05-09T02:11:01.429Z,33.52
2023-05-09T02:12:07.041Z,33.52
2023-05-09T02:13:13.291Z,33.52
2023-05-09T02:14:18.840Z,33.52
2023-05-09T02:15:25.173Z,33.53
2023-05-09T02:16:31.111Z,33.53
2023-05-09T02:17:37.791Z,33.53
2023-05-09T02:18:44.367Z,33.53
2023-05-09T02:19:50.277Z,33.52
2023-05-09T02:20:56.176Z,33.52
2023-05-09T02:22:02.423Z,33.53
2023-05-09T02:23:08.651Z,33.52
2023-05-09T02:24:14.554Z,33.52
2023-05-09T02:25:24.075Z,33.53
2023-05-09T02:26:30.504Z,33.52
2023-05-09T02:27:36.241Z,33.52
2023-05-09T02:28:43.210Z,33.52
2023-05-09T02:29:52.738Z,33.52
2023-05-09T02:30:59.438Z,33.52
2023-05-09T02:32:05.191Z,33.52
2023-05-09T02:33:12.265Z,33.52
2023-05-09T02:34:18.566Z,33.52
2023-05-09T02:35:24.847Z,33.52
2023-05-09T02:36:31.553Z,33.52
2023-05-09T02:37:39.768Z,33.52
2023-05-09T02:38:46.312Z,33.52
2023-05-09T02:39:52.407Z,33.52
2023-05-09T02:40:58.544Z,33.52
2023-05-09T02:42:11.462Z,33.52
2023-05-09T02:43:17.402Z,33.52
2023-05-09T02:44:23.349Z,33.52
2023-05-09T02:45:29.486Z,33.52
2023-05-09T02:46:35.487Z,33.52
2023-05-09T02:47:42.014Z,33.52
2023-05-09T02:48:48.738Z,33.52
2023-05-09T02:49:54.317Z,33.52
2023-05-09T02:50:59.725Z,33.52
2023-05-09T02:52:05.783Z,33.52
2023-05-09T02:53:14.504Z,33.52
2023-05-09T02:54:20.148Z,33.52
2023-05-09T02:55:25.961Z,33.52
2023-05-09T02:56:31.541Z,33.52
2023-05-09T02:57:37.366Z,33.52
2023-05-09T02:58:43.204Z,33.53
2023-05-09T02:59:48.524Z,33.52
2023-05-09T03:00:54.503Z,33.52
2023-05-09T03:02:00.443Z,33.52
2023-05-09T03:03:06.137Z,33.52
2023-05-09T03:04:15.196Z,33.52
2023-05-09T03:05:20.558Z,33.52
2023-05-09T03:06:26.443Z,33.53
2023-05-09T03:07:32.054Z,33.52
2023-05-09T03:08:37.850Z,33.53
2023-05-09T03:09:43.475Z,33.52
2023-05-09T03:10:49.356Z,33.53
2023-05-09T03:11:57.363Z,33.52
2023-05-09T03:13:03.038Z,33.52
2023-05-09T03:14:11.169Z,33.52
2023-05-09T03:15:17.363Z,33.52
2023-05-09T03:16:24.863Z,33.52
2023-05-09T03:17:31.218Z,33.52
2023-05-09T03:18:37.720Z,33.52
2023-05-09T03:19:43.878Z,33.52
2023-05-09T03:20:49.417Z,33.52
2023-05-09T03:21:56.304Z,33.52
2023-05-09T03:23:02.346Z,33.52
2023-05-09T03:24:09.185Z,33.52
2023-05-09T03:25:15.636Z,33.52
2023-05-09T03:26:22.046Z,33.52
2023-05-09T03:27:28.878Z,33.52
2023-05-09T03:28:34.636Z,33.52
2023-05-09T03:29:41.715Z,33.52
2023-05-09T03:30:47.636Z,33.52
2023-05-09T03:31:56.166Z,33.53
2023-05-09T03:33:02.639Z,33.52
2023-05-09T03:34:08.100Z,33.52
2023-05-09T03:35:16.871Z,33.52
2023-05-09T03:36:25.877Z,33.52
2023-05-09T03:37:32.845Z,33.52
2023-05-09T03:38:38.925Z,33.52
2023-05-09T03:39:44.789Z,33.52
2023-05-09T03:40:51.635Z,33.52
2023-05-09T03:41:57.298Z,33.51
2023-05-09T03:43:03.595Z,33.52
2023-05-09T03:44:09.861Z,33.52
2023-05-09T03:45:16.474Z,33.53
2023-05-09T03:46:23.260Z,33.52
2023-05-09T03:47:29.335Z,33.52
2023-05-09T03:48:35.813Z,33.52
2023-05-09T03:49:42.046Z,33.53
2023-05-09T03:50:47.979Z,33.52
2023-05-09T03:51:53.844Z,33.52
2023-05-09T03:52:59.353Z,33.53
2023-05-09T03:54:05.333Z,33.53
2023-05-09T03:55:11.589Z,33.52
2023-05-09T03:56:17.076Z,33.52
2023-05-09T03:57:28.170Z,33.52
2023-05-09T03:58:34.330Z,33.52
2023-05-09T03:59:40.270Z,33.52
2023-05-09T04:00:46.578Z,33.52
2023-05-09T04:01:54.537Z,33.53
2023-05-09T04:03:02.968Z,33.52
2023-05-09T04:04:13.920Z,33.52
2023-05-09T04:05:20.033Z,33.52
2023-05-09T04:06:25.802Z,33.52
2023-05-09T04:07:31.603Z,33.52
2023-05-09T04:08:38.294Z,33.52
2023-05-09T04:09:44.488Z,33.52
2023-05-09T04:10:50.798Z,33.52
2023-05-09T04:11:57.074Z,33.52
2023-05-09T04:13:02.922Z,33.52
2023-05-09T04:14:12.205Z,33.52
2023-05-09T04:15:18.472Z,33.52
2023-05-09T04:16:24.266Z,33.52
2023-05-09T04:17:29.809Z,33.53
2023-05-09T04:18:35.480Z,33.52
2023-05-09T04:19:41.705Z,33.52
2023-05-09T04:20:48.140Z,33.52
2023-05-09T04:21:53.430Z,33.52
2023-05-09T04:22:59.696Z,33.52
2023-05-09T04:24:06.703Z,33.52
2023-05-09T04:25:17.495Z,33.52
2023-05-09T04:26:25.200Z,33.52
2023-05-09T04:27:32.827Z,33.52
2023-05-09T04:28:38.625Z,33.52
2023-05-09T04:29:45.210Z,33.52
2023-05-09T04:30:50.548Z,33.52
2023-05-09T04:31:57.318Z,33.52
2023-05-09T04:33:03.983Z,33.52
2023-05-09T04:34:10.105Z,33.52
2023-05-09T04:35:17.500Z,33.52
2023-05-09T04:36:25.876Z,33.52
2023-05-09T04:37:33.448Z,33.52
2023-05-09T04:38:39.726Z,33.52
2023-05-09T04:39:47.525Z,33.52
2023-05-09T04:40:59.011Z,33.52
2023-05-09T04:42:05.198Z,33.52
2023-05-09T04:43:11.196Z,33.52
2023-05-09T04:44:18.066Z,33.52
2023-05-09T04:45:24.920Z,33.52
2023-05-09T04:46:30.897Z,33.52
2023-05-09T04:47:40.382Z,33.52
2023-05-09T04:48:46.289Z,33.52
2023-05-09T04:49:51.691Z,33.52
2023-05-09T04:50:57.012Z,33.52
2023-05-09T04:52:02.361Z,33.52
2023-05-09T04:53:09.118Z,33.52
2023-05-09T04:54:18.072Z,33.52
2023-05-09T04:55:23.712Z,33.52
2023-05-09T04:56:31.367Z,33.52
2023-05-09T04:57:38.399Z,33.51
2023-05-09T04:58:44.120Z,33.51
2023-05-09T04:59:50.433Z,33.51
2023-05-09T05:00:56.970Z,33.51
2023-05-09T05:02:03.030Z,33.52
2023-05-09T05:03:09.841Z,33.51
2023-05-09T05:04:15.242Z,33.51
2023-05-09T05:05:25.133Z,33.52
2023-05-09T05:06:32.659Z,33.51
2023-05-09T05:07:38.537Z,33.51
2023-05-09T05:08:44.364Z,33.51
2023-05-09T05:09:50.289Z,33.52
2023-05-09T05:10:55.738Z,33.52
2023-05-09T05:12:03.535Z,33.52
2023-05-09T05:13:09.833Z,33.52
2023-05-09T05:14:18.478Z,33.53
2023-05-09T05:15:23.697Z,33.53
2023-05-09T05:16:29.379Z,33.53
2023-05-09T05:17:35.892Z,33.54
2023-05-09T05:18:43.087Z,33.55
2023-05-09T05:19:49.021Z,33.55
2023-05-09T05:20:54.703Z,33.57
2023-05-09T05:22:01.243Z,33.59
2023-05-09T05:23:07.893Z,33.59
2023-05-09T05:24:13.719Z,33.61
2023-05-09T05:25:19.299Z,33.62
2023-05-09T05:26:26.375Z,33.64
2023-05-09T05:27:33.409Z,33.65
2023-05-09T05:28:40.428Z,33.67
2023-05-09T05:29:47.398Z,33.69
2023-05-09T05:30:53.307Z,33.71
2023-05-09T05:31:58.963Z,33.73
2023-05-09T05:33:04.798Z,33.74
2023-05-09T05:34:10.483Z,33.77
2023-05-09T05:35:16.490Z,33.79
2023-05-09T05:36:22.128Z,33.81
2023-05-09T05:37:27.943Z,33.84
2023-05-09T05:38:33.577Z,33.86
2023-05-09T05:39:39.782Z,33.88
2023-05-09T05:40:46.081Z,33.90
2023-05-09T05:41:52.653Z,33.92
2023-05-09T05:42:59.324Z,33.95
2023-05-09T05:44:05.279Z,33.96
2023-05-09T05:45:13.168Z,33.98
2023-05-09T05:46:20.684Z,34.01
2023-05-09T05:47:27.121Z,34.01
2023-05-09T05:48:33.248Z,34.05
2023-05-09T05:49:39.104Z,34.06
2023-05-09T05:50:44.705Z,34.08
2023-05-09T05:51:50.558Z,34.11
2023-05-09T05:52:56.862Z,34.13
2023-05-09T05:54:02.700Z,34.15
2023-05-09T05:55:09.922Z,34.16
2023-05-09T05:56:16.121Z,34.18
2023-05-09T05:57:21.982Z,34.20
2023-05-09T05:58:28.608Z,34.22
2023-05-09T05:59:35.176Z,34.24
2023-05-09T06:00:42.131Z,34.25
2023-05-09T06:01:48.047Z,34.27
2023-05-09T06:02:55.195Z,34.28
2023-05-09T06:04:10.802Z,34.29
2023-05-09T06:05:16.481Z,34.31
2023-05-09T06:06:22.883Z,34.33
2023-05-09T06:07:28.949Z,34.34
2023-05-09T06:08:34.950Z,34.36
2023-05-09T06:09:41.261Z,34.37
2023-05-09T06:10:47.116Z,34.38
2023-05-09T06:11:53.631Z,34.39
2023-05-09T06:13:00.268Z,34.40
2023-05-09T06:14:05.897Z,34.41
2023-05-09T06:15:13.039Z,34.42
2023-05-09T06:16:22.064Z,34.43
2023-05-09T06:17:28.710Z,34.44
2023-05-09T06:18:36.506Z,34.46
2023-05-09T06:19:48.113Z,34.46
2023-05-09T06:20:54.013Z,34.47
2023-05-09T06:21:59.997Z,34.48
2023-05-09T06:23:06.192Z,34.49
2023-05-09T06:24:23.489Z,34.50
2023-05-09T06:25:37.586Z,34.50
2023-05-09T06:26:43.746Z,34.51
2023-05-09T06:27:49.703Z,34.52
2023-05-09T06:28:55.525Z,34.53
2023-05-09T06:30:04.151Z,34.54
2023-05-09T06:32:19.117Z,34.55
2023-05-09T06:33:25.340Z,34.55
2023-05-09T06:34:31.967Z,34.55
2023-05-09T06:35:37.660Z,34.56
2023-05-09T06:36:43.815Z,34.56
2023-05-09T06:37:49.973Z,34.56
2023-05-09T06:38:55.963Z,34.56
2023-05-09T06:40:01.782Z,34.56
2023-05-09T06:41:07.098Z,34.58
2023-05-09T06:42:13.051Z,34.58
2023-05-09T06:43:18.295Z,34.59
2023-05-09T06:44:23.743Z,34.60
2023-05-09T06:45:31.129Z,34.60
2023-05-09T06:46:37.495Z,34.60
2023-05-09T06:47:44.127Z,34.61
2023-05-09T06:48:50.569Z,34.61
2023-05-09T06:49:56.624Z,34.62
2023-05-09T06:51:02.653Z,34.62
2023-05-09T06:52:08.721Z,34.62
2023-05-09T06:53:15.603Z,34.62
2023-05-09T06:54:21.119Z,34.62
2023-05-09T06:55:26.872Z,34.63
2023-05-09T06:56:32.553Z,34.63
2023-05-09T06:57:38.777Z,34.63
2023-05-09T06:58:44.692Z,34.63
2023-05-09T06:59:53.330Z,34.64
2023-05-09T07:00:59.058Z,34.64
2023-05-09T07:02:04.329Z,34.64
2023-05-09T07:03:11.206Z,34.65
2023-05-09T07:04:16.817Z,34.65
2023-05-09T07:05:22.490Z,34.64
2023-05-09T07:06:28.291Z,34.65
2023-05-09T07:07:34.311Z,34.65
2023-05-09T07:08:41.187Z,34.66
2023-05-09T07:09:49.157Z,34.66
2023-05-09T07:10:56.976Z,34.66
2023-05-09T07:12:03.174Z,34.66
2023-05-09T07:13:09.232Z,34.66
2023-05-09T07:14:15.341Z,34.66
2023-05-09T07:15:29.141Z,34.67
2023-05-09T07:16:47.170Z,34.66
2023-05-09T07:17:53.728Z,34.66
2023-05-09T07:18:59.991Z,34.66
2023-05-09T07:20:06.834Z,34.66
2023-05-09T07:21:13.101Z,34.66
2023-05-09T07:22:18.467Z,34.66
2023-05-09T07:23:23.995Z,34.66
2023-05-09T07:24:30.581Z,34.66
2023-05-09T07:25:36.113Z,34.67
2023-05-09T07:26:41.895Z,34.67
2023-05-09T07:27:48.028Z,34.66
2023-05-09T07:28:54.215Z,34.67
2023-05-09T07:29:59.884Z,34.67
2023-05-09T07:31:06.608Z,34.68
2023-05-09T07:32:12.385Z,34.67
2023-05-09T07:33:18.411Z,34.66
2023-05-09T07:34:26.019Z,34.65
2023-05-09T07:35:31.823Z,34.66
2023-05-09T07:37:44.463Z,34.65
2023-05-09T07:38:52.866Z,34.66
2023-05-09T07:39:57.992Z,34.66
2023-05-09T07:41:03.746Z,34.66
2023-05-09T07:42:09.691Z,34.66
2023-05-09T07:43:18.372Z,34.67
2023-05-09T07:44:24.442Z,34.66
2023-05-09T07:45:29.781Z,34.67
2023-05-09T07:46:35.085Z,34.67
2023-05-09T07:47:40.989Z,34.68
2023-05-09T07:48:46.995Z,34.68
2023-05-09T07:49:53.080Z,34.68
2023-05-09T07:50:58.999Z,34.67
2023-05-09T07:52:04.724Z,34.67
2023-05-09T07:53:10.850Z,34.67
2023-05-09T07:54:16.610Z,34.67
2023-05-09T07:55:22.669Z,34.68
2023-05-09T07:56:28.740Z,34.67
2023-05-09T07:57:34.844Z,34.67
2023-05-09T07:58:40.814Z,34.67
2023-05-09T07:59:47.163Z,34.68
2023-05-09T08:00:53.419Z,34.68
2023-05-09T08:02:00.115Z,34.68
2023-05-09T08:03:06.280Z,34.68
2023-05-09T08:04:12.717Z,34.68
2023-05-09T08:05:18.720Z,34.69
2023-05-09T08:06:24.808Z,34.69
2023-05-09T08:07:30.906Z,34.69
2023-05-09T08:08:38.802Z,34.69
2023-05-09T08:09:44.617Z,34.69
2023-05-09T08:10:51.068Z,34.69
2023-05-09T08:11:57.110Z,34.69
2023-05-09T08:13:02.802Z,34.69
2023-05-09T08:14:09.394Z,34.69
2023-05-09T08:15:16.017Z,34.70
2023-05-09T08:16:22.629Z,34.70
2023-05-09T08:17:28.819Z,34.69
2023-05-09T08:18:35.153Z,34.69
2023-05-09T08:19:41.314Z,34.70
2023-05-09T08:20:46.972Z,34.70
2023-05-09T08:21:54.285Z,34.70
2023-05-09T08:23:00.145Z,34.69
2023-05-09T08:24:08.494Z,34.69
2023-05-09T08:25:17.490Z,34.69
2023-05-09T08:26:24.169Z,34.70
2023-05-09T08:27:29.766Z,34.70
2023-05-09T08:28:35.721Z,34.70
2023-05-09T08:29:41.813Z,34.69
2023-05-09T08:30:47.596Z,34.70
2023-05-09T08:31:53.389Z,34.69
2023-05-09T08:33:02.149Z,34.70
2023-05-09T08:34:07.495Z,34.69
2023-05-09T08:35:12.961Z,34.69
2023-05-09T08:36:18.248Z,34.70
2023-05-09T08:37:23.349Z,34.70
2023-05-09T08:38:29.131Z,34.70
2023-05-09T08:39:35.872Z,34.69
2023-05-09T08:40:42.210Z,34.69
2023-05-09T08:41:48.160Z,34.69
2023-05-09T08:42:53.967Z,34.69
2023-05-09T08:44:00.268Z,34.69
2023-05-09T08:45:11.566Z,34.69
2023-05-09T08:46:17.418Z,34.69
2023-05-09T08:47:23.484Z,34.69
2023-05-09T08:48:30.032Z,34.70
2023-05-09T08:49:35.561Z,34.69
2023-05-09T08:50:41.608Z,34.69
2023-05-09T08:51:49.057Z,34.70
2023-05-09T08:52:55.326Z,34.70
2023-05-09T08:54:01.845Z,34.69
2023-05-09T08:55:08.037Z,34.69
2023-05-09T08:56:14.485Z,34.70
2023-05-09T08:57:19.923Z,34.70
2023-05-09T08:58:25.470Z,34.70
2023-05-09T08:59:31.800Z,34.71
2023-05-09T09:00:41.964Z,34.70
2023-05-09T09:01:47.886Z,34.70
2023-05-09T09:02:54.952Z,34.70
2023-05-09T09:04:01.035Z,34.70
2023-05-09T09:05:12.706Z,34.70
2023-05-09T09:06:26.841Z,34.70
2023-05-09T09:07:33.260Z,34.70
2023-05-09T09:08:39.514Z,34.70
2023-05-09T09:09:47.694Z,34.70
2023-05-09T09:10:53.719Z,34.70
2023-05-09T09:11:59.656Z,34.70
2023-05-09T09:13:05.510Z,34.70
2023-05-09T09:14:21.759Z,34.70
2023-05-09T09:15:32.678Z,34.71
2023-05-09T09:16:38.984Z,34.71
2023-05-09T09:17:45.176Z,34.71
2023-05-09T09:18:52.854Z,34.71
2023-05-09T09:20:00.792Z,34.72
2023-05-09T09:21:07.987Z,34.72
2023-05-09T09:22:14.936Z,34.72
2023-05-09T09:23:21.401Z,34.72
2023-05-09T09:24:26.920Z,34.72
2023-05-09T09:25:33.338Z,34.72
2023-05-09T09:26:49.479Z,34.72
2023-05-09T09:27:54.811Z,34.72
2023-05-09T09:29:00.357Z,34.72
2023-05-09T09:30:13.951Z,34.72
2023-05-09T09:31:23.740Z,34.72
2023-05-09T09:32:34.572Z,34.71
2023-05-09T09:33:40.066Z,34.71
2023-05-09T09:34:45.887Z,34.71
2023-05-09T09:35:52.170Z,34.71
2023-05-09T09:36:59.198Z,34.71
2023-05-09T09:38:05.269Z,34.70
2023-05-09T09:39:11.225Z,34.70
2023-05-09T09:40:18.393Z,34.71
2023-05-09T09:41:30.855Z,34.71
2023-05-09T09:42:44.727Z,34.71
2023-05-09T09:43:50.394Z,34.71
2023-05-09T09:45:04.230Z,34.71
2023-05-09T09:46:10.554Z,34.70
2023-05-09T09:47:16.718Z,34.70
2023-05-09T09:48:29.621Z,34.71
2023-05-09T09:49:35.571Z,34.71
2023-05-09T09:50:41.605Z,34.70
2023-05-09T09:51:55.442Z,34.70
2023-05-09T09:53:04.478Z,34.71
2023-05-09T09:54:12.088Z,34.71
2023-05-09T09:55:17.785Z,34.71
2023-05-09T09:56:24.030Z,34.71
2023-05-09T09:57:38.334Z,34.71
2023-05-09T09:58:44.451Z,34.71
2023-05-09T10:00:00.640Z,34.71
2023-05-09T10:01:10.279Z,34.71
2023-05-09T10:02:17.024Z,34.71
2023-05-09T10:03:22.379Z,34.71
2023-05-09T10:04:34.080Z,34.71
2023-05-09T10:05:41.273Z,34.71
2023-05-09T10:06:55.027Z,34.71
2023-05-09T10:08:04.575Z,34.71
2023-05-09T10:09:10.493Z,34.71
2023-05-09T10:10:16.303Z,34.71
2023-05-09T10:11:23.065Z,34.71
2023-05-09T10:12:32.168Z,34.72
2023-05-09T10:13:38.911Z,34.72
2023-05-09T10:14:44.888Z,34.72
2023-05-09T10:15:53.972Z,34.72
2023-05-09T10:17:00.775Z,34.73
2023-05-09T10:18:08.990Z,34.72
2023-05-09T10:19:14.791Z,34.73
2023-05-09T10:20:20.316Z,34.73
2023-05-09T10:21:26.368Z,34.72
2023-05-09T10:22:32.522Z,34.73
2023-05-09T10:23:39.051Z,34.72
2023-05-09T10:24:50.035Z,34.73
2023-05-09T10:26:18.222Z,34.73
2023-05-09T10:27:24.392Z,34.72
2023-05-09T10:28:33.233Z,34.72
2023-05-09T10:30:08.238Z,34.72
2023-05-09T10:31:21.452Z,34.71
2023-05-09T10:32:33.009Z,34.71
2023-05-09T10:33:49.671Z,34.71
2023-05-09T10:34:58.386Z,34.71
2023-05-09T10:36:04.359Z,34.71
2023-05-09T10:37:10.894Z,34.71
2023-05-09T10:38:16.769Z,34.71
2023-05-09T10:39:23.825Z,34.71
2023-05-09T10:40:30.070Z,34.71
2023-05-09T10:41:37.692Z,34.71
2023-05-09T10:42:44.767Z,34.72
2023-05-09T10:43:50.849Z,34.72
2023-05-09T10:44:56.220Z,34.72
2023-05-09T10:46:02.383Z,34.72
2023-05-09T10:47:07.924Z,34.72
2023-05-09T10:48:13.336Z,34.71
2023-05-09T10:49:18.986Z,34.72
2023-05-09T10:50:24.845Z,34.73
2023-05-09T10:51:31.583Z,34.73
2023-05-09T10:52:57.183Z,34.72
2023-05-09T10:54:03.246Z,34.72
2023-05-09T10:55:09.204Z,34.73
2023-05-09T10:56:33.701Z,34.73
2023-05-09T10:57:39.655Z,34.73
2023-05-09T10:58:45.158Z,34.73
2023-05-09T10:59:51.259Z,34.73
2023-05-09T11:01:01.599Z,34.73
2023-05-09T11:02:09.134Z,34.73
2023-05-09T11:03:14.723Z,34.72
2023-05-09T11:04:20.264Z,34.72
2023-05-09T11:05:25.541Z,34.72
2023-05-09T11:06:51.795Z,34.72
2023-05-09T11:08:24.399Z,34.72
2023-05-09T11:09:42.002Z,34.71
2023-05-09T11:10:47.574Z,34.71
2023-05-09T11:11:53.865Z,34.71
2023-05-09T11:13:00.904Z,34.71
2023-05-09T11:14:06.867Z,34.71
2023-05-09T11:15:13.051Z,34.71
2023-05-09T11:16:18.930Z,34.72
2023-05-09T11:17:33.200Z,34.71
2023-05-09T11:18:52.558Z,34.71
2023-05-09T11:20:00.410Z,34.71
2023-05-09T11:21:12.966Z,34.71
2023-05-09T11:22:29.251Z,34.71
2023-05-09T11:23:35.128Z,34.71
2023-05-09T11:24:40.746Z,34.70
2023-05-09T11:25:50.571Z,34.71
2023-05-09T11:26:56.759Z,34.72
2023-05-09T11:28:03.295Z,34.72
2023-05-09T11:29:08.906Z,34.72
2023-05-09T11:30:16.517Z,34.72
2023-05-09T11:31:22.070Z,34.72
2023-05-09T11:32:35.137Z,34.72
2023-05-09T11:33:41.127Z,34.72
2023-05-09T11:34:46.610Z,34.72
2023-05-09T11:36:20.963Z,34.72
2023-05-09T11:37:27.062Z,34.72
2023-05-09T11:38:42.751Z,34.72
2023-05-09T11:40:02.028Z,34.72
2023-05-09T11:41:07.252Z,34.71
2023-05-09T11:42:15.768Z,34.71
2023-05-09T11:43:21.010Z,34.71
2023-05-09T11:44:28.581Z,34.71
2023-05-09T11:45:34.452Z,34.72
2023-05-09T11:46:40.172Z,34.72
2023-05-09T11:47:46.450Z,34.72
2023-05-09T11:48:52.461Z,34.72
2023-05-09T11:49:58.501Z,34.72
2023-05-09T11:51:05.475Z,34.73
2023-05-09T11:52:11.143Z,34.73
2023-05-09T11:53:16.772Z,34.73
2023-05-09T11:54:25.705Z,34.73
2023-05-09T11:55:33.087Z,34.73
2023-05-09T11:56:41.738Z,34.73
2023-05-09T11:57:49.840Z,34.73
2023-05-09T11:58:56.154Z,34.73
2023-05-09T12:00:03.024Z,34.73
2023-05-09T12:01:12.377Z,34.73
2023-05-09T12:02:17.891Z,34.73
2023-05-09T12:03:23.695Z,34.73
2023-05-09T12:04:32.299Z,34.73
2023-05-09T12:05:40.453Z,34.73
2023-05-09T12:06:49.856Z,34.73
2023-05-09T12:07:56.463Z,34.73
2023-05-09T12:09:01.720Z,34.73
2023-05-09T12:10:11.548Z,34.74
2023-05-09T12:11:17.166Z,34.73
2023-05-09T12:12:23.217Z,34.74
2023-05-09T12:13:28.545Z,34.74
2023-05-09T12:14:35.445Z,34.74
2023-05-09T12:15:45.087Z,34.74
2023-05-09T12:16:51.133Z,34.74
2023-05-09T12:18:04.615Z,34.74
2023-05-09T12:19:10.972Z,34.74
2023-05-09T12:20:17.113Z,34.75
2023-05-09T12:21:22.684Z,34.75
2023-05-09T12:22:30.778Z,34.75
2023-05-09T12:23:37.112Z,34.75
2023-05-09T12:24:43.127Z,34.75
2023-05-09T12:25:56.041Z,34.74
2023-05-09T12:27:02.140Z,34.74
2023-05-09T12:28:07.618Z,34.74
2023-05-09T12:29:14.509Z,34.74
2023-05-09T12:30:19.885Z,34.74
2023-05-09T12:31:26.042Z,34.74
2023-05-09T12:32:33.528Z,34.73
2023-05-09T12:33:40.586Z,34.73
2023-05-09T12:34:48.892Z,34.72
2023-05-09T12:36:11.577Z,34.72
2023-05-09T12:37:19.281Z,34.71
2023-05-09T12:38:25.220Z,34.70
2023-05-09T12:39:31.002Z,34.69
2023-05-09T12:40:37.377Z,34.68
2023-05-09T12:41:57.864Z,34.67
2023-05-09T12:43:07.764Z,34.66
2023-05-09T12:44:25.196Z,34.65
2023-05-09T12:45:33.006Z,34.63
2023-05-09T12:46:38.834Z,34.61
2023-05-09T12:47:45.981Z,34.59
2023-05-09T12:48:52.505Z,34.58
2023-05-09T12:50:05.401Z,34.56
2023-05-09T12:51:11.285Z,34.54
2023-05-09T12:52:23.993Z,34.51
2023-05-09T12:53:32.995Z,34.48
2023-05-09T12:54:38.993Z,34.45
2023-05-09T12:55:45.551Z,34.43
2023-05-09T12:56:57.806Z,34.42
2023-05-09T12:58:04.545Z,34.39
2023-05-09T12:59:15.436Z,34.38
2023-05-09T13:00:21.519Z,34.35
2023-05-09T13:01:31.053Z,34.32
2023-05-09T13:02:40.381Z,34.30
2023-05-09T13:03:46.747Z,34.28
2023-05-09T13:04:53.299Z,34.26
2023-05-09T13:06:03.126Z,34.24
2023-05-09T13:07:12.067Z,34.22
2023-05-09T13:08:17.431Z,34.20
2023-05-09T13:09:23.883Z,34.17
2023-05-09T13:10:30.246Z,34.15
2023-05-09T13:11:41.493Z,34.13
2023-05-09T13:12:48.741Z,34.12
2023-05-09T13:13:56.021Z,34.10
2023-05-09T13:15:01.393Z,34.08
2023-05-09T13:16:08.877Z,34.07
2023-05-09T13:17:16.189Z,34.05
2023-05-09T13:18:22.186Z,34.03
2023-05-09T13:19:30.908Z,34.02
2023-05-09T13:20:36.941Z,34.00
2023-05-09T13:21:42.819Z,33.98
2023-05-09T13:22:48.781Z,33.98
2023-05-09T13:23:54.817Z,33.96
2023-05-09T13:25:02.371Z,33.95
2023-05-09T13:26:08.043Z,33.94
2023-05-09T13:27:14.165Z,33.92
2023-05-09T13:28:19.970Z,33.91
2023-05-09T13:29:25.446Z,33.90
2023-05-09T13:30:32.349Z,33.89
2023-05-09T13:31:38.582Z,33.88
2023-05-09T13:32:44.662Z,33.87
2023-05-09T13:33:51.892Z,33.86
2023-05-09T13:34:58.366Z,33.85
2023-05-09T13:36:05.405Z,33.84
2023-05-09T13:37:11.344Z,33.83
2023-05-09T13:38:17.311Z,33.83
2023-05-09T13:39:22.748Z,33.81
2023-05-09T13:40:28.989Z,33.80
2023-05-09T13:41:36.877Z,33.80
2023-05-09T13:42:44.067Z,33.79
2023-05-09T13:43:50.001Z,33.78
2023-05-09T13:44:55.838Z,33.78
2023-05-09T13:46:01.790Z,33.76
2023-05-09T13:47:08.462Z,33.76
2023-05-09T13:48:13.846Z,33.75
2023-05-09T13:49:20.078Z,33.75
2023-05-09T13:50:25.346Z,33.74
2023-05-09T13:51:34.074Z,33.73
2023-05-09T13:52:39.826Z,33.73
2023-05-09T13:53:45.027Z,33.72
2023-05-09T13:54:50.985Z,33.71
2023-05-09T13:55:56.622Z,33.71
2023-05-09T13:57:08.293Z,33.71
2023-05-09T13:58:13.817Z,33.70
2023-05-09T13:59:19.374Z,33.69
2023-05-09T14:00:27.750Z,33.69
2023-05-09T14:01:33.460Z,33.69
2023-05-09T14:02:39.466Z,33.69
2023-05-09T14:03:45.744Z,33.68
2023-05-09T14:04:51.829Z,33.68
2023-05-09T14:05:58.640Z,33.67
2023-05-09T14:07:05.937Z,33.67
2023-05-09T14:08:12.091Z,33.67
2023-05-09T14:09:18.050Z,33.67
2023-05-09T14:10:27.317Z,33.66
2023-05-09T14:11:33.804Z,33.66
2023-05-09T14:12:40.875Z,33.66
2023-05-09T14:13:47.275Z,33.65
2023-05-09T14:14:52.984Z,33.65
2023-05-09T14:15:59.549Z,33.65
2023-05-09T14:17:05.352Z,33.64
2023-05-09T14:18:15.938Z,33.65
2023-05-09T14:19:24.116Z,33.65
2023-05-09T14:20:30.303Z,33.64
2023-05-09T14:21:36.390Z,33.64
2023-05-09T14:22:42.735Z,33.64
2023-05-09T14:23:50.183Z,33.64
2023-05-09T14:24:58.156Z,33.64
2023-05-09T14:26:04.526Z,33.64
2023-05-09T14:27:10.054Z,33.64
2023-05-09T14:28:15.597Z,33.63
2023-05-09T14:29:21.788Z,33.63
2023-05-09T14:30:27.905Z,33.63
2023-05-09T14:31:34.236Z,33.62
2023-05-09T14:32:39.862Z,33.62